sensor_id;sensor_type;location;lat;lon;timestamp;pressure;altitude;pressure_sealevel;temperature;humidity
7052;BME280;3567;52.444;13.556;2023-06-14T00:02:08;101459.38;;;13.34;84.31
7052;BME280;3567;52.444;13.556;2023-06-14T00:04:34;101460.88;;;13.30;84.96
7052;BME280;3567;52.444;13.556;2023-06-14T00:07:00;101466.38;;;13.23;85.07
7052;BME280;3567;52.444;13.556;2023-06-14T00:09:26;101460.16;;;13.23;85.54
7052;BME280;3567;52.444;13.556;2023-06-14T00:11:52;101467.59;;;13.21;84.55
7052;BME280;3567;52.444;13.556;2023-06-14T00:14:17;101468.06;;;13.18;85.75
7052;BME280;3567;52.444;13.556;2023-06-14T00:16:43;101469.13;;;13.17;85.65
7052;BME280;3567;52.444;13.556;2023-06-14T00:19:09;101476.00;;;13.13;85.65
7052;BME280;3567;52.444;13.556;2023-06-14T00:21:36;101477.25;;;13.10;86.69
7052;BME280;3567;52.444;13.556;2023-06-14T00:24:01;101477.06;;;13.11;86.53
7052;BME280;3567;52.444;13.556;2023-06-14T00:26:27;101474.56;;;13.10;86.46
7052;BME280;3567;52.444;13.556;2023-06-14T00:28:53;101471.28;;;13.08;87.16
7052;BME280;3567;52.444;13.556;2023-06-14T00:31:19;101477.72;;;13.07;87.15
7052;BME280;3567;52.444;13.556;2023-06-14T00:33:45;101476.09;;;13.06;87.33
7052;BME280;3567;52.444;13.556;2023-06-14T00:36:10;101469.91;;;13.05;87.84
7052;BME280;3567;52.444;13.556;2023-06-14T00:38:36;101470.34;;;13.02;88.30
7052;BME280;3567;52.444;13.556;2023-06-14T00:41:01;101472.44;;;13.00;88.71
7052;BME280;3567;52.444;13.556;2023-06-14T00:43:26;101477.19;;;12.98;88.59
7052;BME280;3567;52.444;13.556;2023-06-14T00:45:52;101472.88;;;12.97;89.24
7052;BME280;3567;52.444;13.556;2023-06-14T00:48:17;101470.03;;;12.92;90.13
7052;BME280;3567;52.444;13.556;2023-06-14T00:50:44;101472.59;;;12.87;91.31
7052;BME280;3567;52.444;13.556;2023-06-14T00:53:11;101479.69;;;12.81;90.95
7052;BME280;3567;52.444;13.556;2023-06-14T00:55:37;101467.97;;;12.76;91.32
7052;BME280;3567;52.444;13.556;2023-06-14T00:58:03;101456.63;;;12.74;91.62
7052;BME280;3567;52.444;13.556;2023-06-14T01:00:28;101468.88;;;12.70;92.01
7052;BME280;3567;52.444;13.556;2023-06-14T01:02:54;101467.91;;;12.64;92.13
7052;BME280;3567;52.444;13.556;2023-06-14T01:05:20;101467.53;;;12.61;92.44
7052;BME280;3567;52.444;13.556;2023-06-14T01:08:11;101470.88;;;12.56;92.96
7052;BME280;3567;52.444;13.556;2023-06-14T01:11:05;101465.34;;;12.51;93.23
7052;BME280;3567;52.444;13.556;2023-06-14T01:13:34;101464.53;;;12.50;93.53
7052;BME280;3567;52.444;13.556;2023-06-14T01:16:01;101462.31;;;12.47;93.27
7052;BME280;3567;52.444;13.556;2023-06-14T01:18:28;101465.19;;;12.46;93.34
7052;BME280;3567;52.444;13.556;2023-06-14T01:20:55;101470.22;;;12.42;93.61
7052;BME280;3567;52.444;13.556;2023-06-14T01:23:22;101463.63;;;12.38;94.20
7052;BME280;3567;52.444;13.556;2023-06-14T01:25:48;101476.47;;;12.36;94.13
7052;BME280;3567;52.444;13.556;2023-06-14T01:28:19;101471.53;;;12.33;94.65
7052;BME280;3567;52.444;13.556;2023-06-14T01:30:49;101464.53;;;12.32;94.60
7052;BME280;3567;52.444;13.556;2023-06-14T01:33:22;101466.81;;;12.28;95.09
7052;BME280;3567;52.444;13.556;2023-06-14T01:35:50;101460.47;;;12.23;94.99
7052;BME280;3567;52.444;13.556;2023-06-14T01:38:22;101454.53;;;12.21;95.21
7052;BME280;3567;52.444;13.556;2023-06-14T01:40:49;101465.47;;;12.19;95.31
7052;BME280;3567;52.444;13.556;2023-06-14T01:43:16;101470.00;;;12.19;95.37
7052;BME280;3567;52.444;13.556;2023-06-14T01:45:45;101465.09;;;12.16;96.11
7052;BME280;3567;52.444;13.556;2023-06-14T01:48:12;101463.25;;;12.16;95.84
7052;BME280;3567;52.444;13.556;2023-06-14T01:50:38;101470.91;;;12.13;96.39
7052;BME280;3567;52.444;13.556;2023-06-14T01:53:07;101468.44;;;12.11;96.38
7052;BME280;3567;52.444;13.556;2023-06-14T01:55:34;101466.00;;;12.10;96.42
7052;BME280;3567;52.444;13.556;2023-06-14T01:58:03;101467.25;;;12.07;96.70
7052;BME280;3567;52.444;13.556;2023-06-14T02:00:29;101463.97;;;12.05;96.68
7052;BME280;3567;52.444;13.556;2023-06-14T02:02:54;101471.41;;;12.03;96.94
7052;BME280;3567;52.444;13.556;2023-06-14T02:05:20;101479.69;;;12.01;97.24
7052;BME280;3567;52.444;13.556;2023-06-14T02:07:46;101473.72;;;11.99;97.18
7052;BME280;3567;52.444;13.556;2023-06-14T02:10:12;101467.97;;;11.96;97.03
7052;BME280;3567;52.444;13.556;2023-06-14T02:12:37;101471.91;;;11.93;97.69
7052;BME280;3567;52.444;13.556;2023-06-14T02:15:03;101470.25;;;11.92;97.68
7052;BME280;3567;52.444;13.556;2023-06-14T02:17:29;101470.72;;;11.89;98.24
7052;BME280;3567;52.444;13.556;2023-06-14T02:19:54;101475.03;;;11.90;98.16
7052;BME280;3567;52.444;13.556;2023-06-14T02:22:22;101473.97;;;11.91;98.07
7052;BME280;3567;52.444;13.556;2023-06-14T02:24:48;101477.72;;;11.90;99.09
7052;BME280;3567;52.444;13.556;2023-06-14T02:27:13;101467.22;;;11.89;98.44
7052;BME280;3567;52.444;13.556;2023-06-14T02:29:39;101467.41;;;11.87;98.27
7052;BME280;3567;52.444;13.556;2023-06-14T02:32:05;101470.09;;;11.87;98.68
7052;BME280;3567;52.444;13.556;2023-06-14T02:34:32;101472.19;;;11.85;99.20
7052;BME280;3567;52.444;13.556;2023-06-14T02:36:58;101464.94;;;11.86;99.48
7052;BME280;3567;52.444;13.556;2023-06-14T02:39:23;101475.69;;;11.86;99.48
7052;BME280;3567;52.444;13.556;2023-06-14T02:41:49;101477.13;;;11.88;99.81
7052;BME280;3567;52.444;13.556;2023-06-14T02:44:18;101474.44;;;11.88;99.59
7052;BME280;3567;52.444;13.556;2023-06-14T02:46:44;101476.28;;;11.88;99.45
7052;BME280;3567;52.444;13.556;2023-06-14T02:49:10;101477.31;;;11.87;99.63
7052;BME280;3567;52.444;13.556;2023-06-14T02:51:36;101478.13;;;11.87;99.66
7052;BME280;3567;52.444;13.556;2023-06-14T02:54:01;101478.75;;;11.89;99.99
7052;BME280;3567;52.444;13.556;2023-06-14T02:56:27;101475.84;;;11.91;99.99
7052;BME280;3567;52.444;13.556;2023-06-14T02:58:53;101478.53;;;11.91;99.98
7052;BME280;3567;52.444;13.556;2023-06-14T03:01:18;101473.97;;;11.91;100.00
7052;BME280;3567;52.444;13.556;2023-06-14T03:03:46;101478.53;;;11.91;99.95
7052;BME280;3567;52.444;13.556;2023-06-14T03:06:11;101484.72;;;11.91;99.99
7052;BME280;3567;52.444;13.556;2023-06-14T03:08:38;101471.91;;;11.93;100.00
7052;BME280;3567;52.444;13.556;2023-06-14T03:11:04;101472.50;;;11.95;100.00
7052;BME280;3567;52.444;13.556;2023-06-14T03:13:34;101470.06;;;11.94;100.00
7052;BME280;3567;52.444;13.556;2023-06-14T03:16:00;101471.47;;;11.96;100.00
7052;BME280;3567;52.444;13.556;2023-06-14T03:18:29;101476.41;;;11.99;100.00
7052;BME280;3567;52.444;13.556;2023-06-14T03:20:55;101473.72;;;11.99;100.00
7052;BME280;3567;52.444;13.556;2023-06-14T03:23:23;101469.59;;;11.97;100.00
7052;BME280;3567;52.444;13.556;2023-06-14T03:25:48;101479.53;;;11.96;100.00
7052;BME280;3567;52.444;13.556;2023-06-14T03:28:14;101476.84;;;11.96;100.00
7052;BME280;3567;52.444;13.556;2023-06-14T03:30:39;101476.84;;;11.96;100.00
7052;BME280;3567;52.444;13.556;2023-06-14T03:33:05;101481.16;;;11.97;100.00
7052;BME280;3567;52.444;13.556;2023-06-14T03:35:30;101480.09;;;11.98;100.00
7052;BME280;3567;52.444;13.556;2023-06-14T03:37:55;101474.75;;;11.98;100.00
7052;BME280;3567;52.444;13.556;2023-06-14T03:40:21;101480.97;;;11.99;100.00
7052;BME280;3567;52.444;13.556;2023-06-14T03:42:47;101481.78;;;11.99;100.00
7052;BME280;3567;52.444;13.556;2023-06-14T03:45:12;101490.84;;;11.98;100.00
7052;BME280;3567;52.444;13.556;2023-06-14T03:47:37;101486.09;;;12.00;100.00
7052;BME280;3567;52.444;13.556;2023-06-14T03:50:03;101491.25;;;12.02;100.00
7052;BME280;3567;52.444;13.556;2023-06-14T03:52:29;101489.53;;;12.07;100.00
7052;BME280;3567;52.444;13.556;2023-06-14T03:54:55;101488.66;;;12.14;100.00
7052;BME280;3567;52.444;13.556;2023-06-14T03:57:21;101501.81;;;12.22;100.00
7052;BME280;3567;52.444;13.556;2023-06-14T03:59:47;101494.44;;;12.36;100.00
7052;BME280;3567;52.444;13.556;2023-06-14T04:02:12;101506.94;;;12.48;100.00
7052;BME280;3567;52.444;13.556;2023-06-14T04:04:40;101510.09;;;12.64;100.00
7052;BME280;3567;52.444;13.556;2023-06-14T04:07:08;101510.56;;;12.79;99.53
7052;BME280;3567;52.444;13.556;2023-06-14T04:09:33;101518.00;;;12.95;99.68
7052;BME280;3567;52.444;13.556;2023-06-14T04:11:59;101517.25;;;13.06;98.90
7052;BME280;3567;52.444;13.556;2023-06-14T04:14:24;101512.03;;;13.11;98.20
7052;BME280;3567;52.444;13.556;2023-06-14T04:16:49;101512.75;;;13.19;97.69
7052;BME280;3567;52.444;13.556;2023-06-14T04:19:15;101506.03;;;13.28;97.40
7052;BME280;3567;52.444;13.556;2023-06-14T04:21:41;101513.78;;;13.36;96.81
7052;BME280;3567;52.444;13.556;2023-06-14T04:24:07;101510.41;;;13.41;96.10
7052;BME280;3567;52.444;13.556;2023-06-14T04:26:43;101508.47;;;13.48;96.67
7052;BME280;3567;52.444;13.556;2023-06-14T04:29:13;101500.72;;;13.51;95.55
7052;BME280;3567;52.444;13.556;2023-06-14T04:31:45;101498.66;;;13.53;95.48
7052;BME280;3567;52.444;13.556;2023-06-14T04:34:12;101512.47;;;13.57;95.22
7052;BME280;3567;52.444;13.556;2023-06-14T04:36:47;101503.47;;;13.63;94.47
7052;BME280;3567;52.444;13.556;2023-06-14T04:39:19;101507.72;;;13.71;94.65
7052;BME280;3567;52.444;13.556;2023-06-14T04:41:44;101508.53;;;13.83;94.52
7052;BME280;3567;52.444;13.556;2023-06-14T04:44:10;101518.38;;;13.89;94.29
7052;BME280;3567;52.444;13.556;2023-06-14T04:46:36;101515.13;;;13.99;93.58
7052;BME280;3567;52.444;13.556;2023-06-14T04:49:17;101522.66;;;14.08;93.40
7052;BME280;3567;52.444;13.556;2023-06-14T04:51:44;101518.31;;;14.19;93.83
7052;BME280;3567;52.444;13.556;2023-06-14T04:54:10;101518.06;;;14.21;93.76
7052;BME280;3567;52.444;13.556;2023-06-14T04:56:41;101520.31;;;14.24;93.08
7052;BME280;3567;52.444;13.556;2023-06-14T04:59:11;101516.44;;;14.31;93.08
7052;BME280;3567;52.444;13.556;2023-06-14T05:01:38;101515.03;;;14.40;93.15
7052;BME280;3567;52.444;13.556;2023-06-14T05:04:03;101519.88;;;14.38;91.92
7052;BME280;3567;52.444;13.556;2023-06-14T05:06:29;101516.81;;;14.35;92.09
7052;BME280;3567;52.444;13.556;2023-06-14T05:08:55;101510.59;;;14.34;92.66
7052;BME280;3567;52.444;13.556;2023-06-14T05:11:21;101523.00;;;14.35;92.68
7052;BME280;3567;52.444;13.556;2023-06-14T05:13:49;101520.19;;;14.42;92.17
7052;BME280;3567;52.444;13.556;2023-06-14T05:16:15;101519.88;;;14.50;92.71
7052;BME280;3567;52.444;13.556;2023-06-14T05:18:42;101529.59;;;14.63;92.83
7052;BME280;3567;52.444;13.556;2023-06-14T05:21:07;101523.16;;;14.76;92.68
7052;BME280;3567;52.444;13.556;2023-06-14T05:23:33;101533.44;;;14.79;91.34
7052;BME280;3567;52.444;13.556;2023-06-14T05:25:59;101530.28;;;14.82;90.99
7052;BME280;3567;52.444;13.556;2023-06-14T05:28:24;101534.13;;;14.86;90.45
7052;BME280;3567;52.444;13.556;2023-06-14T05:30:51;101536.22;;;14.96;90.79
7052;BME280;3567;52.444;13.556;2023-06-14T05:33:16;101550.06;;;14.99;90.46
7052;BME280;3567;52.444;13.556;2023-06-14T05:35:42;101543.03;;;14.98;90.39
7052;BME280;3567;52.444;13.556;2023-06-14T05:38:07;101533.06;;;14.99;90.13
7052;BME280;3567;52.444;13.556;2023-06-14T05:40:33;101545.34;;;15.06;89.82
7052;BME280;3567;52.444;13.556;2023-06-14T05:42:59;101538.53;;;15.15;89.99
7052;BME280;3567;52.444;13.556;2023-06-14T05:45:24;101533.69;;;15.17;90.09
7052;BME280;3567;52.444;13.556;2023-06-14T05:47:49;101538.63;;;15.20;89.61
7052;BME280;3567;52.444;13.556;2023-06-14T05:50:15;101538.72;;;15.26;89.30
7052;BME280;3567;52.444;13.556;2023-06-14T05:52:41;101540.63;;;15.25;89.59
7052;BME280;3567;52.444;13.556;2023-06-14T05:55:06;101547.41;;;15.28;89.62
7052;BME280;3567;52.444;13.556;2023-06-14T05:57:32;101550.00;;;15.23;89.36
7052;BME280;3567;52.444;13.556;2023-06-14T05:59:57;101547.19;;;15.17;89.46
7052;BME280;3567;52.444;13.556;2023-06-14T06:02:22;101549.78;;;15.12;89.55
7052;BME280;3567;52.444;13.556;2023-06-14T06:04:48;101558.13;;;15.11;89.50
7052;BME280;3567;52.444;13.556;2023-06-14T06:07:13;101556.97;;;15.07;89.74
7052;BME280;3567;52.444;13.556;2023-06-14T06:09:39;101560.47;;;15.07;88.72
7052;BME280;3567;52.444;13.556;2023-06-14T06:12:06;101559.66;;;15.07;88.95
7052;BME280;3567;52.444;13.556;2023-06-14T06:14:32;101554.16;;;15.02;88.85
7052;BME280;3567;52.444;13.556;2023-06-14T06:16:57;101555.69;;;15.09;88.83
7052;BME280;3567;52.444;13.556;2023-06-14T06:19:23;101553.44;;;15.06;88.61
7052;BME280;3567;52.444;13.556;2023-06-14T06:21:48;101545.34;;;15.06;88.92
7052;BME280;3567;52.444;13.556;2023-06-14T06:24:13;101555.69;;;15.09;89.77
7052;BME280;3567;52.444;13.556;2023-06-14T06:26:39;101554.03;;;15.08;89.33
7052;BME280;3567;52.444;13.556;2023-06-14T06:29:05;101560.25;;;15.09;88.84
7052;BME280;3567;52.444;13.556;2023-06-14T06:31:31;101542.06;;;15.04;89.01
7052;BME280;3567;52.444;13.556;2023-06-14T06:33:56;101553.44;;;15.06;89.14
7052;BME280;3567;52.444;13.556;2023-06-14T06:36:21;101552.63;;;15.06;89.08
7052;BME280;3567;52.444;13.556;2023-06-14T06:38:47;101558.38;;;15.09;88.91
7052;BME280;3567;52.444;13.556;2023-06-14T06:41:13;101549.22;;;15.10;89.37
7052;BME280;3567;52.444;13.556;2023-06-14T06:43:38;101543.47;;;15.18;88.48
7052;BME280;3567;52.444;13.556;2023-06-14T06:46:04;101555.50;;;15.28;88.21
7052;BME280;3567;52.444;13.556;2023-06-14T06:48:29;101553.91;;;15.43;88.71
7052;BME280;3567;52.444;13.556;2023-06-14T06:50:55;101562.91;;;15.61;87.98
7052;BME280;3567;52.444;13.556;2023-06-14T06:53:20;101560.00;;;15.79;87.13
7052;BME280;3567;52.444;13.556;2023-06-14T06:55:46;101554.06;;;15.94;87.06
7052;BME280;3567;52.444;13.556;2023-06-14T06:58:12;101564.31;;;16.09;86.10
7052;BME280;3567;52.444;13.556;2023-06-14T07:00:37;101558.41;;;16.29;86.88
7052;BME280;3567;52.444;13.556;2023-06-14T07:03:03;101557.09;;;16.48;85.68
7052;BME280;3567;52.444;13.556;2023-06-14T07:05:29;101558.88;;;16.59;85.17
7052;BME280;3567;52.444;13.556;2023-06-14T07:07:55;101565.50;;;16.68;84.68
7052;BME280;3567;52.444;13.556;2023-06-14T07:10:20;101574.63;;;16.79;83.79
7052;BME280;3567;52.444;13.556;2023-06-14T07:12:45;101572.78;;;16.85;83.27
7052;BME280;3567;52.444;13.556;2023-06-14T07:15:12;101582.63;;;16.91;83.41
7052;BME280;3567;52.444;13.556;2023-06-14T07:17:37;101584.31;;;16.97;82.61
7052;BME280;3567;52.444;13.556;2023-06-14T07:20:03;101584.44;;;17.07;81.56
7052;BME280;3567;52.444;13.556;2023-06-14T07:22:33;101592.16;;;17.15;81.14
7052;BME280;3567;52.444;13.556;2023-06-14T07:24:58;101594.47;;;17.28;81.21
7052;BME280;3567;52.444;13.556;2023-06-14T07:27:24;101597.56;;;17.37;80.27
7052;BME280;3567;52.444;13.556;2023-06-14T07:29:49;101594.09;;;17.42;78.96
7052;BME280;3567;52.444;13.556;2023-06-14T07:32:14;101597.91;;;17.46;78.70
7052;BME280;3567;52.444;13.556;2023-06-14T07:34:40;101601.69;;;17.45;77.39
7052;BME280;3567;52.444;13.556;2023-06-14T07:37:05;101597.03;;;17.40;78.04
7052;BME280;3567;52.444;13.556;2023-06-14T07:39:31;101587.34;;;17.44;78.83
7052;BME280;3567;52.444;13.556;2023-06-14T07:41:56;101595.38;;;17.61;79.67
7052;BME280;3567;52.444;13.556;2023-06-14T07:44:22;101591.78;;;17.77;78.68
7052;BME280;3567;52.444;13.556;2023-06-14T07:46:47;101590.66;;;17.73;78.42
7052;BME280;3567;52.444;13.556;2023-06-14T07:49:14;101587.84;;;17.68;77.95
7052;BME280;3567;52.444;13.556;2023-06-14T07:51:40;101585.22;;;17.73;78.72
7052;BME280;3567;52.444;13.556;2023-06-14T07:54:05;101582.28;;;17.75;77.34
7052;BME280;3567;52.444;13.556;2023-06-14T07:56:32;101590.75;;;17.84;77.92
7052;BME280;3567;52.444;13.556;2023-06-14T07:58:58;101580.53;;;17.91;75.86
7052;BME280;3567;52.444;13.556;2023-06-14T08:01:23;101584.34;;;17.95;76.82
7052;BME280;3567;52.444;13.556;2023-06-14T08:03:50;101576.28;;;18.00;77.27
7052;BME280;3567;52.444;13.556;2023-06-14T08:06:15;101580.94;;;18.04;76.28
7052;BME280;3567;52.444;13.556;2023-06-14T08:08:41;101583.63;;;18.04;76.38
7052;BME280;3567;52.444;13.556;2023-06-14T08:11:06;101581.50;;;18.06;76.40
7052;BME280;3567;52.444;13.556;2023-06-14T08:13:32;101587.22;;;18.10;76.27
7052;BME280;3567;52.444;13.556;2023-06-14T08:15:57;101578.84;;;18.12;76.07
7052;BME280;3567;52.444;13.556;2023-06-14T08:18:23;101574.28;;;18.17;75.95
7052;BME280;3567;52.444;13.556;2023-06-14T08:20:48;101578.38;;;18.25;75.69
7052;BME280;3567;52.444;13.556;2023-06-14T08:23:15;101575.53;;;18.42;75.29
7052;BME280;3567;52.444;13.556;2023-06-14T08:25:44;101573.44;;;18.49;74.82
7052;BME280;3567;52.444;13.556;2023-06-14T08:28:09;101568.03;;;18.54;74.49
7052;BME280;3567;52.444;13.556;2023-06-14T08:30:35;101564.50;;;18.58;75.12
7052;BME280;3567;52.444;13.556;2023-06-14T08:33:00;101559.94;;;18.64;74.60
7052;BME280;3567;52.444;13.556;2023-06-14T08:35:26;101562.13;;;18.67;73.49
7052;BME280;3567;52.444;13.556;2023-06-14T08:37:51;101558.13;;;18.75;74.50
7052;BME280;3567;52.444;13.556;2023-06-14T08:40:21;101573.13;;;18.82;73.39
7052;BME280;3567;52.444;13.556;2023-06-14T08:42:54;101574.78;;;18.89;72.35
7052;BME280;3567;52.444;13.556;2023-06-14T08:45:24;101571.28;;;18.93;72.43
7052;BME280;3567;52.444;13.556;2023-06-14T08:47:50;101571.28;;;18.98;71.42
7052;BME280;3567;52.444;13.556;2023-06-14T08:50:27;101583.56;;;19.11;72.23
7052;BME280;3567;52.444;13.556;2023-06-14T08:52:57;101589.59;;;19.18;70.23
7052;BME280;3567;52.444;13.556;2023-06-14T08:55:26;101572.47;;;19.18;70.08
7052;BME280;3567;52.444;13.556;2023-06-14T08:57:56;101582.00;;;19.25;70.30
7052;BME280;3567;52.444;13.556;2023-06-14T09:00:25;101585.56;;;19.31;69.17
7052;BME280;3567;52.444;13.556;2023-06-14T09:02:52;101580.94;;;19.36;69.13
7052;BME280;3567;52.444;13.556;2023-06-14T09:05:26;101575.50;;;19.36;69.93
7052;BME280;3567;52.444;13.556;2023-06-14T09:07:51;101573.88;;;19.35;68.74
7052;BME280;3567;52.444;13.556;2023-06-14T09:10:18;101582.06;;;19.41;68.88
7052;BME280;3567;52.444;13.556;2023-06-14T09:12:43;101584.25;;;19.49;68.23
7052;BME280;3567;52.444;13.556;2023-06-14T09:15:09;101580.25;;;19.61;69.19
7052;BME280;3567;52.444;13.556;2023-06-14T09:17:35;101577.28;;;19.83;68.52
7052;BME280;3567;52.444;13.556;2023-06-14T09:20:05;101575.09;;;19.80;65.96
7052;BME280;3567;52.444;13.556;2023-06-14T09:22:31;101577.56;;;19.77;66.58
7052;BME280;3567;52.444;13.556;2023-06-14T09:24:57;101572.13;;;19.82;66.81
7052;BME280;3567;52.444;13.556;2023-06-14T09:27:22;101574.84;;;19.97;66.87
7052;BME280;3567;52.444;13.556;2023-06-14T09:29:48;101578.38;;;20.13;65.73
7052;BME280;3567;52.444;13.556;2023-06-14T09:32:13;101577.84;;;20.16;65.43
7052;BME280;3567;52.444;13.556;2023-06-14T09:34:39;101572.13;;;20.33;66.17
7052;BME280;3567;52.444;13.556;2023-06-14T09:37:05;101569.69;;;20.62;65.58
7052;BME280;3567;52.444;13.556;2023-06-14T09:39:30;101575.91;;;20.73;64.87
7052;BME280;3567;52.444;13.556;2023-06-14T09:41:56;101580.00;;;20.65;64.89
7052;BME280;3567;52.444;13.556;2023-06-14T09:44:21;101563.66;;;20.65;65.03
7052;BME280;3567;52.444;13.556;2023-06-14T09:46:50;101575.13;;;20.62;62.98
7052;BME280;3567;52.444;13.556;2023-06-14T09:49:16;101566.16;;;20.46;61.99
7052;BME280;3567;52.444;13.556;2023-06-14T09:51:45;101564.47;;;20.45;60.59
7052;BME280;3567;52.444;13.556;2023-06-14T09:54:16;101568.59;;;20.32;61.42
7052;BME280;3567;52.444;13.556;2023-06-14T09:56:44;101566.97;;;20.21;61.73
7052;BME280;3567;52.444;13.556;2023-06-14T09:59:12;101569.41;;;20.07;62.62
7052;BME280;3567;52.444;13.556;2023-06-14T10:01:42;101563.72;;;20.04;62.48
7052;BME280;3567;52.444;13.556;2023-06-14T10:04:09;101569.16;;;19.99;62.31
7052;BME280;3567;52.444;13.556;2023-06-14T10:06:43;101569.69;;;20.01;63.18
7052;BME280;3567;52.444;13.556;2023-06-14T10:09:11;101568.88;;;20.00;62.83
7052;BME280;3567;52.444;13.556;2023-06-14T10:11:38;101558.81;;;20.01;61.82
7052;BME280;3567;52.444;13.556;2023-06-14T10:14:09;101568.34;;;20.03;62.43
7052;BME280;3567;52.444;13.556;2023-06-14T10:19:42;101567.53;;;19.98;63.72
7052;BME280;3567;52.444;13.556;2023-06-14T10:22:12;101575.69;;;19.98;64.27
7052;BME280;3567;52.444;13.556;2023-06-14T10:24:43;101563.72;;;19.99;63.84
7052;BME280;3567;52.444;13.556;2023-06-14T10:27:09;101565.88;;;20.02;63.57
7052;BME280;3567;52.444;13.556;2023-06-14T10:32:18;101565.63;;;20.13;63.81
7052;BME280;3567;52.444;13.556;2023-06-14T10:34:54;101559.91;;;20.15;64.30
7052;BME280;3567;52.444;13.556;2023-06-14T10:37:20;101558.81;;;20.16;62.56
7052;BME280;3567;52.444;13.556;2023-06-14T10:39:46;101561.00;;;20.09;63.06
7052;BME280;3567;52.444;13.556;2023-06-14T10:42:13;101561.53;;;20.01;61.80
7052;BME280;3567;52.444;13.556;2023-06-14T10:44:43;101561.53;;;20.01;63.40
7052;BME280;3567;52.444;13.556;2023-06-14T10:47:10;101558.81;;;20.01;64.26
7052;BME280;3567;52.444;13.556;2023-06-14T10:49:49;101553.94;;;19.98;63.47
7052;BME280;3567;52.444;13.556;2023-06-14T10:52:16;101551.22;;;20.03;63.39
7052;BME280;3567;52.444;13.556;2023-06-14T10:57:30;101545.22;;;20.16;64.10
7052;BME280;3567;52.444;13.556;2023-06-14T10:59:58;101542.19;;;20.23;64.38
7052;BME280;3567;52.444;13.556;2023-06-14T11:05:08;101534.28;;;20.62;63.59
7052;BME280;3567;52.444;13.556;2023-06-14T11:10:39;101519.91;;;21.16;62.20
7052;BME280;3567;52.444;13.556;2023-06-14T11:13:06;101529.09;;;21.25;61.54
7052;BME280;3567;52.444;13.556;2023-06-14T11:15:33;101523.75;;;21.15;61.35
7052;BME280;3567;52.444;13.556;2023-06-14T11:18:06;101527.50;;;21.19;60.90
7052;BME280;3567;52.444;13.556;2023-06-14T11:20:33;101515.50;;;21.25;58.39
7052;BME280;3567;52.444;13.556;2023-06-14T11:23:00;101523.94;;;21.24;59.38
7052;BME280;3567;52.444;13.556;2023-06-14T11:25:26;101510.88;;;21.26;58.42
7052;BME280;3567;52.444;13.556;2023-06-14T11:27:53;101507.88;;;21.27;58.23
7052;BME280;3567;52.444;13.556;2023-06-14T11:30:19;101508.19;;;21.21;58.33
7052;BME280;3567;52.444;13.556;2023-06-14T11:32:49;101502.94;;;21.29;57.19
7052;BME280;3567;52.444;13.556;2023-06-14T11:35:15;101501.22;;;21.49;56.73
7052;BME280;3567;52.444;13.556;2023-06-14T11:37:41;101502.19;;;21.68;56.88
7052;BME280;3567;52.444;13.556;2023-06-14T11:40:08;101499.31;;;21.83;56.81
7052;BME280;3567;52.444;13.556;2023-06-14T11:42:35;101485.03;;;21.96;56.81
7052;BME280;3567;52.444;13.556;2023-06-14T11:45:02;101476.53;;;21.98;55.07
7052;BME280;3567;52.444;13.556;2023-06-14T11:47:35;101478.88;;;22.10;55.39
7052;BME280;3567;52.444;13.556;2023-06-14T11:50:05;101486.31;;;22.81;55.54
7052;BME280;3567;52.444;13.556;2023-06-14T11:52:31;101462.56;;;23.57;54.25
7052;BME280;3567;52.444;13.556;2023-06-14T11:54:57;101453.53;;;24.22;48.57
7052;BME280;3567;52.444;13.556;2023-06-14T11:57:24;101452.22;;;24.33;48.65
7052;BME280;3567;52.444;13.556;2023-06-14T11:59:49;101451.44;;;24.46;48.70
7052;BME280;3567;52.444;13.556;2023-06-14T12:02:16;101452.09;;;24.93;48.61
7052;BME280;3567;52.444;13.556;2023-06-14T12:04:42;101441.34;;;25.33;47.12
7052;BME280;3567;52.444;13.556;2023-06-14T12:07:09;101420.75;;;25.67;44.33
7052;BME280;3567;52.444;13.556;2023-06-14T12:09:36;101425.81;;;26.04;44.63
7052;BME280;3567;52.444;13.556;2023-06-14T12:12:02;101415.69;;;26.62;42.91
7052;BME280;3567;52.444;13.556;2023-06-14T12:14:30;101398.75;;;26.95;42.12
7052;BME280;3567;52.444;13.556;2023-06-14T12:17:04;101397.31;;;26.97;39.69
7052;BME280;3567;52.444;13.556;2023-06-14T12:19:31;101397.63;;;27.04;40.18
7052;BME280;3567;52.444;13.556;2023-06-14T12:21:59;101384.53;;;27.10;37.99
7052;BME280;3567;52.444;13.556;2023-06-14T12:24:28;101381.44;;;27.03;38.52
7052;BME280;3567;52.444;13.556;2023-06-14T12:26:56;101382.25;;;26.86;38.38
7052;BME280;3567;52.444;13.556;2023-06-14T12:29:22;101383.22;;;26.73;38.51
7052;BME280;3567;52.444;13.556;2023-06-14T12:31:49;101373.50;;;26.84;38.17
7052;BME280;3567;52.444;13.556;2023-06-14T12:34:14;101377.91;;;27.02;38.67
7052;BME280;3567;52.444;13.556;2023-06-14T12:36:39;101368.84;;;27.02;38.18
7052;BME280;3567;52.444;13.556;2023-06-14T12:39:09;101370.97;;;27.13;38.57
7052;BME280;3567;52.444;13.556;2023-06-14T12:41:34;101368.34;;;27.26;38.21
7052;BME280;3567;52.444;13.556;2023-06-14T12:43:59;101372.06;;;27.38;38.02
7052;BME280;3567;52.444;13.556;2023-06-14T12:46:30;101373.09;;;27.81;38.24
7052;BME280;3567;52.444;13.556;2023-06-14T12:48:56;101363.75;;;28.41;36.74
7052;BME280;3567;52.444;13.556;2023-06-14T12:51:22;101367.78;;;28.85;36.42
7052;BME280;3567;52.444;13.556;2023-06-14T12:53:47;101358.25;;;29.04;35.78
7052;BME280;3567;52.444;13.556;2023-06-14T12:56:14;101360.44;;;28.98;35.94
7052;BME280;3567;52.444;13.556;2023-06-14T12:58:39;101352.59;;;29.00;34.91
7052;BME280;3567;52.444;13.556;2023-06-14T13:01:05;101350.31;;;28.81;35.07
7052;BME280;3567;52.444;13.556;2023-06-14T13:03:30;101339.00;;;28.53;34.03
7052;BME280;3567;52.444;13.556;2023-06-14T13:05:56;101338.16;;;28.32;35.29
7052;BME280;3567;52.444;13.556;2023-06-14T13:08:21;101334.78;;;28.35;35.26
7052;BME280;3567;52.444;13.556;2023-06-14T13:10:47;101346.94;;;28.34;36.00
7052;BME280;3567;52.444;13.556;2023-06-14T13:13:13;101336.09;;;27.99;35.39